createdAt,value
2019-04-26T00:00:51.202Z,42.39
2019-04-26T00:03:18.503Z,42.47
2019-04-26T00:05:43.864Z,42.11
2019-04-26T00:08:10.857Z,42.54
2019-04-26T00:10:36.626Z,42.59
2019-04-26T00:13:02.979Z,42.60
2019-04-26T00:15:29.306Z,42.77
2019-04-26T00:17:55.642Z,42.90
2019-04-26T00:20:21.975Z,42.63
2019-04-26T00:22:48.357Z,42.68
2019-04-26T00:25:14.732Z,42.66
2019-04-26T00:27:41.103Z,42.56
2019-04-26T00:30:07.479Z,42.67
2019-04-26T00:32:33.864Z,42.68
2019-04-26T00:35:00.164Z,42.60
2019-04-26T00:37:26.516Z,42.62
2019-04-26T00:39:52.989Z,42.71
2019-04-26T00:42:21.035Z,42.66
2019-04-26T00:44:45.694Z,42.52
2019-04-26T00:47:13.655Z,42.63
2019-04-26T00:49:43.840Z,42.48
2019-04-26T00:54:31.097Z,42.55
2019-04-26T00:56:57.417Z,42.88
2019-04-26T00:59:24.626Z,42.74
2019-04-26T01:01:50.129Z,42.71
2019-04-26T01:04:17.075Z,42.93
2019-04-26T01:06:42.843Z,43.05
2019-04-26T01:09:09.136Z,43.39
2019-04-26T01:11:35.466Z,43.34
2019-04-26T01:14:01.817Z,43.46
2019-04-26T01:16:28.147Z,43.58
2019-04-26T01:18:54.482Z,43.79
2019-04-26T01:21:20.857Z,43.87
2019-04-26T01:23:47.246Z,43.99
2019-04-26T01:26:13.631Z,44.09
2019-04-26T01:28:39.924Z,44.10
2019-04-26T01:31:06.287Z,44.36
2019-04-26T01:33:32.627Z,44.33
2019-04-26T01:35:58.954Z,44.33
2019-04-26T01:38:25.710Z,44.29
2019-04-26T01:40:51.716Z,44.24
2019-04-26T01:43:18.029Z,44.29
2019-04-26T01:45:44.384Z,44.31
2019-04-26T01:50:37.045Z,44.23
2019-04-26T01:53:03.379Z,44.12
2019-04-26T01:55:29.704Z,44.21
2019-04-26T01:57:56.057Z,44.18
2019-04-26T02:00:23.683Z,44.14
2019-04-26T02:02:48.788Z,44.34
2019-04-26T02:05:15.121Z,44.29
2019-04-26T02:07:41.517Z,44.15
2019-04-26T02:10:07.821Z,44.22
2019-04-26T02:12:34.212Z,44.13
2019-04-26T02:15:00.512Z,44.15
2019-04-26T02:17:27.297Z,44.17
2019-04-26T02:19:53.231Z,44.11
2019-04-26T02:24:45.971Z,44.21
2019-04-26T02:27:12.252Z,44.17
2019-04-26T02:29:38.597Z,44.25
2019-04-26T02:32:04.936Z,44.35
2019-04-26T02:34:33.168Z,44.51
2019-04-26T02:36:59.046Z,44.57
2019-04-26T02:39:24.176Z,44.60
2019-04-26T02:41:50.598Z,44.72
2019-04-26T02:44:16.919Z,44.73
2019-04-26T02:46:43.266Z,44.62
2019-04-26T02:49:09.583Z,44.75
2019-04-26T02:51:36.737Z,44.68
2019-04-26T02:54:02.319Z,44.76
2019-04-26T02:56:30.284Z,44.72
2019-04-26T02:58:54.989Z,44.85
2019-04-26T03:01:21.399Z,44.76
2019-04-26T03:03:47.703Z,44.58
2019-04-26T03:06:14.101Z,44.43
2019-04-26T03:08:40.457Z,44.49
2019-04-26T03:11:06.779Z,44.30
2019-04-26T03:13:35.050Z,44.39
2019-04-26T03:15:59.539Z,44.49
2019-04-26T03:18:25.848Z,44.52
2019-04-26T03:20:52.210Z,44.39
2019-04-26T03:23:18.534Z,44.58
2019-04-26T03:25:44.867Z,44.55
2019-04-26T03:28:11.308Z,44.60
2019-04-26T03:30:44.509Z,44.80
2019-04-26T03:33:04.190Z,44.80
2019-04-26T03:35:30.424Z,44.95
2019-04-26T03:37:56.744Z,44.87
2019-04-26T03:40:23.197Z,45.10
2019-04-26T03:42:49.484Z,45.01
2019-04-26T03:45:15.896Z,45.13
2019-04-26T03:47:44.486Z,45.25
2019-04-26T03:50:08.577Z,45.36
2019-04-26T03:52:36.982Z,45.37
2019-04-26T03:55:01.264Z,45.48
2019-04-26T03:57:27.682Z,45.49
2019-04-26T03:59:54.004Z,45.41
2019-04-26T04:02:20.350Z,45.46
2019-04-26T04:04:46.825Z,45.48
2019-04-26T04:07:13.013Z,45.36
2019-04-26T04:09:39.826Z,45.26
2019-04-26T04:12:11.456Z,45.14
2019-04-26T04:14:31.999Z,44.99
2019-04-26T04:16:58.370Z,45.05
2019-04-26T04:19:24.750Z,44.83
2019-04-26T04:21:51.073Z,44.67
2019-04-26T04:24:17.487Z,44.49
2019-04-26T04:26:44.845Z,44.37
2019-04-26T04:29:10.138Z,44.33
2019-04-26T04:31:36.496Z,44.19
2019-04-26T04:34:03.045Z,44.20
2019-04-26T04:36:29.474Z,44.41
2019-04-26T04:39:11.398Z,44.43
2019-04-26T04:41:22.230Z,44.36
2019-04-26T04:43:49.427Z,44.38
2019-04-26T04:46:14.828Z,44.57
2019-04-26T04:48:42.609Z,44.33
2019-04-26T04:51:07.542Z,44.60
2019-04-26T04:53:33.870Z,44.58
2019-04-26T04:56:00.307Z,44.58
2019-04-26T04:58:29.117Z,44.30
2019-04-26T05:00:55.440Z,44.57
2019-04-26T05:03:22.251Z,44.69
2019-04-26T05:05:51.053Z,44.62
2019-04-26T05:08:14.951Z,44.68
2019-04-26T05:10:41.383Z,44.82
2019-04-26T05:13:07.723Z,44.76
2019-04-26T05:15:34.052Z,44.61
2019-04-26T05:18:00.412Z,44.78
2019-04-26T05:20:26.804Z,45.08
2019-04-26T05:22:53.256Z,45.03
2019-04-26T05:25:19.492Z,44.98
2019-04-26T05:27:46.800Z,45.06
2019-04-26T05:30:12.164Z,45.06
2019-04-26T05:32:38.486Z,45.04
2019-04-26T05:35:04.818Z,44.98
2019-04-26T05:37:31.234Z,44.80
2019-04-26T05:39:57.574Z,44.83
2019-04-26T05:42:24.013Z,44.75
2019-04-26T05:44:50.307Z,44.66
2019-04-26T05:47:16.636Z,44.59
2019-04-26T05:49:42.978Z,44.44
2019-04-26T05:52:12.192Z,44.67
2019-04-26T05:54:35.691Z,44.57
2019-04-26T05:57:05.043Z,44.63
2019-04-26T05:59:31.434Z,44.56
2019-04-26T06:01:58.946Z,44.64
2019-04-26T06:04:24.096Z,44.63
2019-04-26T06:06:51.710Z,44.64
2019-04-26T06:09:17.002Z,44.63
2019-04-26T06:11:43.330Z,44.80
2019-04-26T06:16:35.984Z,44.59
2019-04-26T06:19:02.512Z,44.73
2019-04-26T06:21:28.854Z,44.85
2019-04-26T06:23:55.708Z,44.73
2019-04-26T06:26:21.606Z,44.84
2019-04-26T06:28:47.962Z,44.86
2019-04-26T06:31:14.312Z,44.75
2019-04-26T06:33:40.708Z,45.00
2019-04-26T06:36:07.173Z,44.86
2019-04-26T06:38:43.254Z,44.80
2019-04-26T06:41:00.205Z,44.78
2019-04-26T06:43:26.532Z,44.68
2019-04-26T06:45:52.682Z,44.71
2019-04-26T06:48:19.091Z,44.78
2019-04-26T06:50:45.433Z,44.80
2019-04-26T06:53:11.751Z,44.77
2019-04-26T06:55:40.952Z,44.82
2019-04-26T07:00:33.654Z,44.85
2019-04-26T07:03:01.039Z,44.78
2019-04-26T07:05:26.308Z,45.08
2019-04-26T07:07:52.653Z,44.84
2019-04-26T07:10:19.038Z,44.78
2019-04-26T07:12:45.456Z,44.64
2019-04-26T07:15:12.142Z,44.95
2019-04-26T07:17:38.194Z,44.80
2019-04-26T07:20:06.023Z,44.81
2019-04-26T07:22:35.545Z,44.72
2019-04-26T07:24:57.295Z,44.68
2019-04-26T07:27:23.740Z,44.74
2019-04-26T07:29:50.092Z,44.80
2019-04-26T07:32:16.422Z,44.60
2019-04-26T07:34:42.823Z,44.71
2019-04-26T07:37:09.106Z,44.72
2019-04-26T07:39:35.515Z,44.50
2019-04-26T07:42:03.095Z,44.72
2019-04-26T07:44:28.220Z,44.47
2019-04-26T07:46:54.566Z,44.70
2019-04-26T07:49:20.967Z,44.58
2019-04-26T07:51:47.361Z,44.55
2019-04-26T07:54:13.704Z,44.64
2019-04-26T07:56:40.041Z,44.54
2019-04-26T07:59:07.219Z,44.45
2019-04-26T08:01:32.753Z,44.55
2019-04-26T08:03:59.131Z,44.47
2019-04-26T08:06:25.452Z,44.23
2019-04-26T08:08:51.856Z,44.37
2019-04-26T08:11:18.207Z,44.43
2019-04-26T08:13:44.544Z,44.28
2019-04-26T08:18:37.246Z,44.48
2019-04-26T08:21:09.931Z,44.25
2019-04-26T08:23:41.156Z,44.43
2019-04-26T08:28:22.694Z,44.37
2019-04-26T08:30:49.000Z,44.27
2019-04-26T08:33:16.129Z,44.41
2019-04-26T08:38:15.950Z,44.45
2019-04-26T08:40:34.382Z,44.43
2019-04-26T08:43:00.742Z,44.36
2019-04-26T08:45:27.126Z,44.52
2019-04-26T08:47:53.658Z,44.38
2019-04-26T08:50:19.949Z,44.43
2019-04-26T08:52:46.356Z,44.62
2019-04-26T08:55:12.699Z,44.43
2019-04-26T08:57:39.084Z,44.68
2019-04-26T09:00:05.724Z,44.48
2019-04-26T09:02:32.055Z,44.33
2019-04-26T09:04:58.431Z,44.45
2019-04-26T09:07:24.760Z,44.53
2019-04-26T09:09:57.077Z,44.51
2019-04-26T09:12:23.211Z,44.53
2019-04-26T09:14:43.900Z,44.52
2019-04-26T09:17:10.237Z,44.49
2019-04-26T09:19:36.623Z,44.55
2019-04-26T09:22:12.895Z,44.70
2019-04-26T09:24:29.544Z,44.47
2019-04-26T09:26:55.893Z,44.59
2019-04-26T09:29:22.314Z,44.54
2019-04-26T09:31:50.488Z,44.57
2019-04-26T09:34:14.965Z,44.52
2019-04-26T09:36:41.343Z,44.45
2019-04-26T09:39:08.369Z,44.60
2019-04-26T09:41:34.039Z,44.47
2019-04-26T09:44:00.451Z,44.40
2019-04-26T09:46:26.818Z,44.54
2019-04-26T09:48:53.120Z,44.43
2019-04-26T09:51:19.544Z,44.44
2019-04-26T09:53:45.890Z,44.39
2019-04-26T09:56:12.221Z,44.54
2019-04-26T09:58:38.599Z,44.46
2019-04-26T10:01:06.299Z,44.32
2019-04-26T10:03:34.177Z,44.45
2019-04-26T10:05:57.807Z,44.51
2019-04-26T10:08:24.195Z,44.50
2019-04-26T10:10:51.714Z,44.40
2019-04-26T10:13:16.890Z,44.41
2019-04-26T10:15:43.251Z,44.25
2019-04-26T10:18:09.633Z,44.35
2019-04-26T10:20:35.968Z,44.41
2019-04-26T10:23:02.336Z,44.39
2019-04-26T10:25:28.680Z,44.50
2019-04-26T10:27:55.013Z,44.34
2019-04-26T10:30:21.400Z,44.29
2019-04-26T10:32:47.744Z,44.29
2019-04-26T10:35:17.670Z,44.26
2019-04-26T10:37:43.856Z,44.13
2019-04-26T10:40:06.870Z,44.04
2019-04-26T10:42:33.197Z,44.07
2019-04-26T10:44:59.679Z,44.02
2019-04-26T10:47:26.011Z,43.90
2019-04-26T10:49:54.457Z,43.92
2019-04-26T10:52:18.797Z,43.84
2019-04-26T10:54:46.094Z,43.83
2019-04-26T10:57:11.554Z,43.89
2019-04-26T10:59:39.843Z,43.71
2019-04-26T11:02:04.172Z,43.72
2019-04-26T11:04:30.525Z,43.59
2019-04-26T11:06:58.086Z,43.55
2019-04-26T11:09:23.300Z,43.53
2019-04-26T11:11:49.662Z,43.51
2019-04-26T11:14:18.249Z,43.34
2019-04-26T11:16:42.404Z,43.54
2019-04-26T11:19:08.732Z,43.38
2019-04-26T11:21:35.123Z,43.30
2019-04-26T11:24:01.492Z,43.25
2019-04-26T11:26:31.063Z,43.25
2019-04-26T11:28:55.766Z,43.20
2019-04-26T11:31:23.320Z,42.92
2019-04-26T11:33:49.517Z,43.02
2019-04-26T11:36:13.309Z,42.95
2019-04-26T11:38:39.745Z,42.94
2019-04-26T11:41:06.907Z,42.92
2019-04-26T11:43:32.405Z,42.92
2019-04-26T11:46:04.739Z,42.82
2019-04-26T11:48:25.536Z,42.78
2019-04-26T11:50:52.291Z,42.67
2019-04-26T11:53:17.974Z,42.57
2019-04-26T11:55:44.306Z,42.47
2019-04-26T11:58:10.657Z,42.41
2019-04-26T12:00:37.031Z,42.41
2019-04-26T12:03:03.360Z,42.42
2019-04-26T12:05:29.716Z,42.18
2019-04-26T12:07:56.158Z,42.27
2019-04-26T12:12:51.789Z,42.11
2019-04-26T12:15:15.147Z,42.05
2019-04-26T12:17:41.549Z,41.86
2019-04-26T12:22:34.315Z,41.84
2019-04-26T12:25:03.421Z,41.79
2019-04-26T12:27:30.733Z,41.65
2019-04-26T12:32:22.735Z,41.68
2019-04-26T12:34:49.138Z,41.54
2019-04-26T12:37:19.864Z,41.59
2019-04-26T12:39:41.850Z,41.46
2019-04-26T12:42:12.127Z,41.54
2019-04-26T12:44:36.429Z,41.32
2019-04-26T12:47:03.669Z,41.30
2019-04-26T12:49:27.355Z,41.41
2019-04-26T12:51:53.765Z,41.21
2019-04-26T12:54:20.031Z,40.83
2019-04-26T12:56:46.392Z,40.83
2019-04-26T12:59:15.692Z,41.24
2019-04-26T13:01:42.683Z,41.04
2019-04-26T13:04:05.440Z,41.16
2019-04-26T13:06:32.295Z,41.16
2019-04-26T13:08:58.107Z,41.17
2019-04-26T13:11:24.434Z,40.94
2019-04-26T13:16:17.169Z,41.02
2019-04-26T13:18:45.207Z,41.25
2019-04-26T13:21:09.930Z,41.16
2019-04-26T13:23:36.267Z,41.09
2019-04-26T13:26:02.644Z,41.11
2019-04-26T13:28:29.023Z,41.14
2019-04-26T13:30:55.305Z,41.17
2019-04-26T13:33:23.134Z,41.04
2019-04-26T13:36:02.333Z,41.08
2019-04-26T13:38:15.577Z,41.10
2019-04-26T13:40:41.942Z,41.03
2019-04-26T13:43:08.269Z,40.96
2019-04-26T13:45:34.641Z,41.01
2019-04-26T13:50:28.317Z,40.95
2019-04-26T13:52:53.712Z,40.91
2019-04-26T13:55:20.126Z,40.93
2019-04-26T13:57:46.460Z,40.98
2019-04-26T14:00:12.814Z,40.89
2019-04-26T14:02:39.246Z,40.49
2019-04-26T14:05:05.564Z,40.49
2019-04-26T14:07:31.963Z,40.76
2019-04-26T14:12:24.566Z,40.99
2019-04-26T14:14:50.894Z,40.45
2019-04-26T14:17:17.244Z,40.45
2019-04-26T14:19:45.312Z,40.70
2019-04-26T14:22:09.997Z,41.12
2019-04-26T14:24:36.339Z,40.92
2019-04-26T14:27:02.661Z,40.79
2019-04-26T14:29:32.421Z,40.73
2019-04-26T14:34:21.696Z,40.62
2019-04-26T14:36:48.080Z,41.15
2019-04-26T14:39:17.494Z,41.15
2019-04-26T14:41:40.829Z,40.79
2019-04-26T14:44:15.266Z,40.64
2019-04-26T14:46:33.499Z,40.46
2019-04-26T14:49:02.753Z,40.35
2019-04-26T14:51:26.192Z,40.57
2019-04-26T14:53:52.602Z,40.47
2019-04-26T14:56:18.964Z,40.47
2019-04-26T14:58:45.261Z,40.38
2019-04-26T15:01:12.434Z,40.40
2019-04-26T15:03:38.004Z,40.01
2019-04-26T15:06:04.390Z,40.56
2019-04-26T15:08:32.611Z,40.65
2019-04-26T15:11:01.204Z,40.15
2019-04-26T15:13:24.630Z,40.15
2019-04-26T15:15:52.555Z,40.30
2019-04-26T15:18:17.360Z,40.23
2019-04-26T15:20:43.712Z,40.17
2019-04-26T15:23:10.045Z,40.30
2019-04-26T15:25:36.885Z,40.26
2019-04-26T15:28:06.719Z,40.53
2019-04-26T15:30:29.065Z,40.40
2019-04-26T15:32:55.494Z,40.47
2019-04-26T15:35:23.223Z,40.18
2019-04-26T15:37:48.180Z,40.40
2019-04-26T15:40:14.562Z,40.50
2019-04-26T15:42:40.883Z,40.50
2019-04-26T15:47:34.365Z,40.02
2019-04-26T15:50:05.600Z,40.05
2019-04-26T15:52:26.341Z,39.84
2019-04-26T15:54:58.439Z,39.79
2019-04-26T15:57:19.020Z,39.92
2019-04-26T15:59:45.360Z,40.12
2019-04-26T16:02:12.436Z,40.23
2019-04-26T16:04:38.063Z,40.14
2019-04-26T16:07:04.443Z,39.97
2019-04-26T16:09:32.277Z,39.95
2019-04-26T16:11:57.101Z,39.96
2019-04-26T16:14:24.923Z,40.09
2019-04-26T16:16:49.826Z,40.16
2019-04-26T16:19:16.228Z,39.93
2019-04-26T16:21:42.637Z,40.09
2019-04-26T16:24:12.977Z,40.12
2019-04-26T16:26:39.028Z,40.20
2019-04-26T16:29:05.363Z,40.20
2019-04-26T16:31:32.233Z,40.13
2019-04-26T16:33:58.078Z,39.97
2019-04-26T16:36:24.397Z,40.14
2019-04-26T16:38:56.118Z,40.10
2019-04-26T16:41:17.042Z,39.68
2019-04-26T16:43:50.940Z,39.68
2019-04-26T16:46:12.595Z,40.10
2019-04-26T16:48:36.060Z,39.93
2019-04-26T16:51:08.561Z,39.98
2019-04-26T16:55:55.205Z,40.26
2019-04-26T16:58:23.961Z,40.26
2019-04-26T17:00:54.187Z,40.08
2019-04-26T17:03:14.227Z,40.08
2019-04-26T17:05:48.647Z,40.71
2019-04-26T17:08:10.168Z,40.71
2019-04-26T17:09:51.031Z,40.00
2019-04-26T17:10:33.319Z,40.62
2019-04-26T17:12:59.653Z,41.08
2019-04-26T17:15:26.001Z,41.77
2019-04-26T17:17:52.746Z,41.10
2019-04-26T17:20:18.785Z,41.10
2019-04-26T17:22:56.319Z,41.31
2019-04-26T17:25:12.663Z,41.40
2019-04-26T17:27:40.292Z,41.35
2019-04-26T17:30:04.208Z,41.39
2019-04-26T17:32:30.643Z,41.82
2019-04-26T17:34:59.745Z,41.82
2019-04-26T17:37:26.566Z,41.57
2019-04-26T17:39:52.252Z,41.69
2019-04-26T17:42:16.049Z,41.71
2019-04-26T17:44:42.400Z,41.84
2019-04-26T17:47:10.429Z,41.95
2019-04-26T17:49:38.037Z,41.54
2019-04-26T17:52:02.027Z,41.96
2019-04-26T17:54:43.682Z,42.09
2019-04-26T17:56:54.206Z,42.13
2019-04-26T17:59:31.334Z,42.02
2019-04-26T18:01:52.038Z,42.02
2019-04-26T18:04:13.347Z,42.09
2019-04-26T18:06:40.351Z,42.17
2019-04-26T18:11:33.026Z,42.33
2019-04-26T18:13:58.983Z,42.29
2019-04-26T18:16:29.521Z,42.42
2019-04-26T18:18:54.393Z,42.48
2019-04-26T18:21:20.248Z,42.32
2019-04-26T18:23:44.748Z,42.41
2019-04-26T18:26:10.868Z,42.41
2019-04-26T18:28:37.288Z,42.62
2019-04-26T18:33:29.971Z,42.64
2019-04-26T18:35:57.557Z,42.76
2019-04-26T18:38:22.928Z,42.75
2019-04-26T18:41:00.111Z,42.37
2019-04-26T18:43:18.809Z,42.37
2019-04-26T18:45:42.809Z,42.81
2019-04-26T18:48:08.116Z,42.95
2019-04-26T18:50:36.488Z,42.99
2019-04-26T18:53:00.935Z,43.18
2019-04-26T18:55:29.872Z,43.14
2019-04-26T18:57:59.446Z,43.08
2019-04-26T19:00:21.503Z,43.10
2019-04-26T19:02:48.376Z,43.35
2019-04-26T19:05:15.589Z,43.26
2019-04-26T19:07:39.116Z,43.34
2019-04-26T19:10:05.592Z,43.31
2019-04-26T19:12:32.639Z,43.43
2019-04-26T19:15:03.141Z,43.85
2019-04-26T19:17:26.023Z,43.85
2019-04-26T19:19:51.673Z,43.56
2019-04-26T19:22:20.181Z,43.53
2019-04-26T19:24:43.658Z,43.69
2019-04-26T19:27:10.043Z,43.70
2019-04-26T19:29:36.408Z,43.74
2019-04-26T19:32:04.290Z,43.82
2019-04-26T19:34:30.254Z,43.97
2019-04-26T19:36:56.315Z,43.97
2019-04-26T19:39:31.696Z,43.70
2019-04-26T19:41:53.625Z,43.96
2019-04-26T19:44:18.520Z,44.01
2019-04-26T19:46:43.780Z,43.99
2019-04-26T19:49:07.245Z,43.81
2019-04-26T19:51:33.622Z,43.81
2019-04-26T19:53:59.950Z,44.04
2019-04-26T19:56:27.720Z,44.04
2019-04-26T19:58:57.632Z,44.09
2019-04-26T20:01:20.970Z,44.05
2019-04-26T20:03:47.261Z,44.21
2019-04-26T20:06:18.888Z,44.23
2019-04-26T20:08:46.217Z,44.24
2019-04-26T20:11:12.818Z,44.21
2019-04-26T20:13:36.529Z,44.25
2019-04-26T20:16:05.932Z,44.22
2019-04-26T20:18:32.801Z,44.38
2019-04-26T20:20:55.520Z,44.29
2019-04-26T20:23:22.877Z,44.21
2019-04-26T20:25:48.216Z,44.25
2019-04-26T20:30:42.223Z,44.30
2019-04-26T20:33:07.365Z,44.25
2019-04-26T20:35:33.668Z,44.27
2019-04-26T20:38:01.101Z,44.25
2019-04-26T20:40:26.353Z,44.29
2019-04-26T20:42:57.153Z,44.32
2019-04-26T20:45:19.263Z,44.15
2019-04-26T20:47:46.866Z,44.16
2019-04-26T20:50:11.985Z,44.19
2019-04-26T20:52:38.311Z,44.19
2019-04-26T20:55:04.671Z,44.16
2019-04-26T20:57:34.421Z,44.19
2019-04-26T21:00:01.608Z,44.19
2019-04-26T21:02:24.833Z,44.19
2019-04-26T21:04:51.510Z,44.10
2019-04-26T21:07:16.391Z,44.04
2019-04-26T21:09:43.547Z,44.10
2019-04-26T21:12:17.038Z,44.06
2019-04-26T21:14:37.762Z,44.01
2019-04-26T21:17:01.920Z,44.00
2019-04-26T21:21:54.638Z,44.05
2019-04-26T21:24:23.423Z,43.92
2019-04-26T21:26:52.766Z,43.92
2019-04-26T21:29:20.271Z,43.91
2019-04-26T21:31:40.973Z,43.73
2019-04-26T21:34:07.821Z,43.86
2019-04-26T21:36:34.720Z,43.86
2019-04-26T21:38:59.361Z,43.75
2019-04-26T21:41:25.434Z,43.79
2019-04-26T21:43:53.270Z,43.82
2019-04-26T21:46:19.181Z,43.85
2019-04-26T21:48:44.793Z,43.76
2019-04-26T21:51:14.566Z,43.73
2019-04-26T21:53:38.242Z,43.68
2019-04-26T21:56:07.290Z,43.63
2019-04-26T21:58:29.932Z,43.75
2019-04-26T22:00:56.279Z,43.68
2019-04-26T22:05:49.982Z,43.56
2019-04-26T22:08:17.440Z,43.44
2019-04-26T22:10:43.675Z,43.57
2019-04-26T22:13:08.098Z,43.56
2019-04-26T22:15:37.470Z,43.32
2019-04-26T22:18:00.766Z,43.38
2019-04-26T22:20:27.136Z,43.39
2019-04-26T22:22:53.501Z,43.28
2019-04-26T22:27:46.224Z,43.30
2019-04-26T22:30:13.296Z,43.45
2019-04-26T22:32:38.874Z,43.36
2019-04-26T22:35:05.224Z,43.25
2019-04-26T22:37:31.614Z,43.19
2019-04-26T22:39:57.965Z,43.24
2019-04-26T22:42:24.313Z,43.29
2019-04-26T22:44:50.642Z,43.26
2019-04-26T22:47:16.974Z,43.09
2019-04-26T22:49:45.158Z,43.17
2019-04-26T22:52:11.106Z,43.16
2019-04-26T22:54:37.676Z,43.10
2019-04-26T22:57:03.912Z,43.10
2019-04-26T22:59:28.712Z,43.06
2019-04-26T23:01:55.088Z,42.98
2019-04-26T23:04:23.637Z,42.82
2019-04-26T23:06:48.233Z,42.94
2019-04-26T23:09:16.980Z,43.13
2019-04-26T23:11:45.285Z,42.87
2019-04-26T23:14:07.028Z,42.93
2019-04-26T23:16:33.659Z,43.07
2019-04-26T23:18:59.786Z,43.09
2019-04-26T23:21:26.207Z,43.00
2019-04-26T23:23:53.432Z,42.87
2019-04-26T23:26:18.990Z,42.83
2019-04-26T23:28:45.312Z,42.73
2019-04-26T23:31:13.316Z,42.98
2019-04-26T23:33:37.980Z,43.07
2019-04-26T23:36:04.317Z,43.04
2019-04-26T23:38:36.157Z,43.00
2019-04-26T23:40:57.269Z,42.97
2019-04-26T23:43:25.563Z,42.92
2019-04-26T23:45:49.655Z,42.95
2019-04-26T23:48:16.041Z,42.92
2019-04-26T23:50:42.974Z,42.99
2019-04-26T23:53:08.702Z,43.04
2019-04-26T23:55:38.064Z,42.79
2019-04-26T23:58:06.442Z,42.96
